Time;durP1;ratioP1;P1;durP2;ratioP2;P2;SDS_P1;SDS_P2;PMS_P1;PMS_P2;Temp;Humidity;BMP_temperature;BMP_pressure;BME280_temperature;BME280_humidity;BME280_pressure;Samples;Min_cycle;Max_cycle;Signal;HPM_P1;HPM_P2
2022/03/17 00:01:49;;;;;;;30.93;27.93;;;9.40;91.30;;;;;;5119734;27;20267;-44
2022/03/17 00:04:15;;;;;;;30.60;27.57;;;9.40;91.30;;;;;;5127690;27;20179;-44
2022/03/17 00:06:41;;;;;;;31.20;28.03;;;9.40;91.40;;;;;;5129041;27;20425;-44
2022/03/17 00:09:07;;;;;;;30.97;27.73;;;9.40;91.40;;;;;;5131817;27;20187;-44
2022/03/17 00:11:34;;;;;;;30.97;27.97;;;9.40;91.40;;;;;;5128345;27;20417;-44
2022/03/17 00:14:01;;;;;;;30.60;27.63;;;9.40;91.40;;;;;;5128767;27;20496;-43
2022/03/17 00:16:28;;;;;;;29.50;26.50;;;9.30;91.40;;;;;;5127994;27;20430;-44
2022/03/17 00:18:55;;;;;;;29.47;26.47;;;9.30;91.40;;;;;;5134389;27;20429;-44
2022/03/17 00:21:21;;;;;;;29.00;25.97;;;9.30;91.40;;;;;;5126242;27;20723;-44
2022/03/17 00:23:48;;;;;;;32.40;29.30;;;9.30;91.40;;;;;;5119975;28;20422;-44
2022/03/17 00:26:15;;;;;;;28.17;25.33;;;9.30;91.40;;;;;;5118777;28;20944;-44
2022/03/17 00:28:41;;;;;;;30.37;27.40;;;9.20;91.30;;;;;;5119884;28;20429;-44
2022/03/17 00:31:07;;;;;;;30.33;27.33;;;9.30;91.50;;;;;;5118185;28;20772;-44
2022/03/17 00:33:33;;;;;;;29.17;26.27;;;9.30;91.40;;;;;;5120164;28;20442;-46
2022/03/17 00:36:00;;;;;;;31.53;28.43;;;9.20;91.40;;;;;;5133697;27;20456;-44
2022/03/17 00:38:25;;;;;;;40.07;28.80;;;9.20;91.40;;;;;;5138989;27;20413;-44
2022/03/17 00:40:51;;;;;;;31.73;28.73;;;9.20;91.50;;;;;;5124685;27;20249;-44
2022/03/17 00:43:17;;;;;;;31.20;28.00;;;9.20;91.60;;;;;;5118569;28;20172;-44
2022/03/17 00:45:45;;;;;;;31.40;28.40;;;9.20;91.70;;;;;;5117309;27;20459;-44
2022/03/17 00:48:12;;;;;;;31.20;28.17;;;9.20;91.70;;;;;;5119041;28;20514;-44
2022/03/17 00:50:38;;;;;;;31.40;28.20;;;9.20;91.80;;;;;;5117495;28;20418;-44
2022/03/17 00:53:04;;;;;;;29.97;27.07;;;9.10;91.70;;;;;;5119101;28;20407;-42
2022/03/17 00:55:30;;;;;;;30.60;27.53;;;9.10;91.80;;;;;;5119541;28;20891;-43
2022/03/17 00:57:56;;;;;;;30.23;27.13;;;9.10;91.80;;;;;;5117744;28;20444;-44
2022/03/17 01:00:21;;;;;;;16.83;15.20;;;9.10;91.80;;;;;;5119384;28;20410;-43
2022/03/17 01:02:50;;;;;;;9.87;8.97;;;9.20;94.60;;;;;;5118189;28;20180;-44
2022/03/17 01:05:16;;;;;;;12.23;11.03;;;9.80;97.10;;;;;;5119578;28;20208;-43
2022/03/17 01:07:42;;;;;;;12.17;10.97;;;10.40;96.60;;;;;;5118126;28;20760;-44
2022/03/17 01:10:09;;;;;;;20.33;18.20;;;10.90;96.10;;;;;;5119589;28;20804;-43
2022/03/17 01:12:35;;;;;;;25.10;22.60;;;11.00;94.80;;;;;;5118210;28;20438;-44
2022/03/17 01:15:02;;;;;;;23.37;21.17;;;11.00;92.10;;;;;;5100940;28;20406;-44
2022/03/17 01:17:27;;;;;;;25.33;22.93;;;10.80;91.10;;;;;;5117888;28;20432;-44
2022/03/17 01:19:53;;;;;;;26.73;24.13;;;10.60;90.60;;;;;;5119233;28;20426;-44
2022/03/17 01:22:21;;;;;;;27.13;24.63;;;10.40;90.40;;;;;;5117850;28;20438;-44
2022/03/17 01:24:49;;;;;;;29.17;26.27;;;10.30;90.30;;;;;;5118596;28;20469;-44
2022/03/17 01:27:15;;;;;;;31.77;28.57;;;10.10;90.30;;;;;;5117769;28;20449;-43
2022/03/17 01:29:43;;;;;;;29.83;26.83;;;9.90;91.00;;;;;;5119113;28;20781;-43
2022/03/17 01:32:09;;;;;;;27.90;25.17;;;9.80;91.10;;;;;;5117174;28;20433;-43
2022/03/17 01:34:35;;;;;;;31.43;28.30;;;9.60;91.20;;;;;;5118858;28;20714;-43
2022/03/17 01:37:01;;;;;;;30.27;27.27;;;9.50;91.30;;;;;;5122883;27;20441;-44
2022/03/17 01:39:27;;;;;;;30.07;27.07;;;9.50;91.40;;;;;;5139089;27;20419;-43
2022/03/17 01:41:57;;;;;;;32.00;28.90;;;9.40;91.50;;;;;;5134693;27;20179;-44
2022/03/17 01:44:23;;;;;;;31.63;28.53;;;9.40;91.60;;;;;;5118386;28;20180;-43
2022/03/17 01:49:36;;;;;;;28.97;26.17;;;9.20;91.80;;;;;;5118298;28;20478;-44
2022/03/17 01:52:03;;;;;;;29.33;26.37;;;9.10;91.80;;;;;;5116945;28;20418;-44
2022/03/17 01:54:28;;;;;;;28.90;26.00;;;9.10;91.90;;;;;;5118733;28;20821;-44
2022/03/17 01:56:54;;;;;;;29.43;26.50;;;9.00;92.00;;;;;;5116911;28;20460;-44
2022/03/17 01:59:21;;;;;;;30.87;27.93;;;9.00;92.10;;;;;;5118776;28;20217;-43
2022/03/17 02:01:48;;;;;;;30.97;27.90;;;9.00;92.20;;;;;;5117082;28;20414;-43
2022/03/17 02:04:14;;;;;;;30.23;27.33;;;9.00;92.20;;;;;;5099699;28;20622;-44
2022/03/17 02:06:39;;;;;;;30.80;27.77;;;8.90;92.20;;;;;;5116605;28;20553;-44
2022/03/17 02:09:05;;;;;;;30.27;27.27;;;8.90;92.30;;;;;;5118196;28;20659;-44
2022/03/17 02:14:23;;;;;;;31.77;28.50;;;8.90;92.50;;;;;;5117760;28;20425;-43
2022/03/17 02:16:50;;;;;;;32.17;28.87;;;8.90;92.50;;;;;;5118480;28;20433;-44
2022/03/17 02:19:16;;;;;;;32.10;28.70;;;8.80;92.50;;;;;;5116931;28;20509;-44
2022/03/17 02:21:44;;;;;;;30.40;27.37;;;8.90;92.60;;;;;;5100035;28;20786;-44
2022/03/17 02:26:57;;;;;;;33.07;29.63;;;8.80;92.60;;;;;;5117945;28;20545;-44
2022/03/17 02:29:22;;;;;;;30.57;27.37;;;8.80;92.60;;;;;;5099320;28;20517;-43
2022/03/17 02:31:50;;;;;;;31.67;28.43;;;8.80;92.60;;;;;;5117800;28;20837;-44
2022/03/17 02:34:19;;;;;;;30.17;26.97;;;8.80;92.60;;;;;;5117242;28;20566;-44
2022/03/17 02:36:49;;;;;;;30.57;27.47;;;8.80;92.60;;;;;;5118368;28;20680;-42
2022/03/17 02:39:16;;;;;;;31.40;28.20;;;8.90;92.70;;;;;;5120655;28;20508;-43
2022/03/17 02:41:42;;;;;;;32.57;29.37;;;8.80;92.70;;;;;;5133073;27;20691;-44
2022/03/17 02:44:07;;;;;;;31.80;28.70;;;8.80;92.70;;;;;;5142658;27;20416;-44
2022/03/17 02:46:33;;;;;;;31.73;28.60;;;8.80;92.80;;;;;;5133014;27;20564;-44
2022/03/17 02:48:59;;;;;;;30.20;27.07;;;8.80;92.80;;;;;;5121710;28;20176;-43
2022/03/17 02:51:24;;;;;;;31.87;28.13;;;8.80;92.80;;;;;;5120627;28;20184;-44
2022/03/17 02:53:50;;;;;;;31.80;28.70;;;8.80;92.80;;;;;;5121455;28;20178;-44
2022/03/17 02:56:16;;;;;;;31.50;28.40;;;8.90;92.80;;;;;;5120665;28;20208;-44
2022/03/17 02:58:41;;;;;;;31.80;28.60;;;8.80;92.90;;;;;;5121945;28;20511;-42
2022/03/17 03:01:07;;;;;;;32.00;28.83;;;8.80;92.90;;;;;;5120450;28;20180;-41
2022/03/17 03:03:32;;;;;;;32.63;29.23;;;8.80;92.90;;;;;;5121995;28;20184;-44
2022/03/17 03:05:58;;;;;;;33.03;29.73;;;8.80;92.90;;;;;;5121242;28;20592;-44
2022/03/17 03:08:24;;;;;;;33.23;29.63;;;8.90;93.10;;;;;;5121349;28;20207;-43
2022/03/17 03:10:49;;;;;;;31.53;28.43;;;8.80;93.10;;;;;;5120431;28;20184;-44
2022/03/17 03:13:15;;;;;;;30.17;27.07;;;8.80;93.20;;;;;;5121669;28;20249;-44
2022/03/17 03:15:41;;;;;;;34.83;30.63;;;8.80;93.20;;;;;;5120618;28;20275;-44
2022/03/17 03:18:07;;;;;;;33.23;29.90;;;8.80;93.20;;;;;;5121058;28;20481;-44
2022/03/17 03:20:33;;;;;;;33.40;29.90;;;8.90;93.20;;;;;;5123205;27;20441;-42
2022/03/17 03:22:59;;;;;;;33.83;30.53;;;8.80;93.20;;;;;;5131916;27;20192;-44
2022/03/17 03:25:25;;;;;;;32.00;28.60;;;8.80;93.30;;;;;;5140856;27;20479;-43
2022/03/17 03:27:50;;;;;;;32.47;29.07;;;8.90;93.40;;;;;;5141924;27;20489;-44
2022/03/17 03:30:16;;;;;;;34.33;30.73;;;8.90;93.40;;;;;;5140801;27;20251;-44
2022/03/17 03:32:44;;;;;;;36.07;32.07;;;8.90;93.40;;;;;;5141361;27;20179;-44
2022/03/17 03:37:54;;;;;;;35.90;30.43;;;8.80;93.40;;;;;;5141370;27;20443;-42
2022/03/17 03:40:20;;;;;;;33.80;30.40;;;8.90;93.40;;;;;;5140203;27;20441;-44
2022/03/17 03:42:46;;;;;;;35.67;31.97;;;8.90;93.40;;;;;;5141522;27;20588;-44
2022/03/17 03:45:12;;;;;;;35.30;31.60;;;8.90;93.40;;;;;;5140495;27;20207;-43
2022/03/17 03:47:37;;;;;;;34.40;30.87;;;8.90;93.50;;;;;;5122776;27;20432;-44
2022/03/17 03:50:03;;;;;;;37.17;33.13;;;8.90;93.50;;;;;;5140419;27;20571;-43
2022/03/17 03:52:29;;;;;;;34.67;30.97;;;8.90;93.60;;;;;;5141659;27;20222;-43
2022/03/17 03:54:54;;;;;;;35.20;31.57;;;8.90;93.60;;;;;;5139470;27;20512;-44
2022/03/17 03:57:20;;;;;;;35.10;31.50;;;8.90;93.70;;;;;;5141250;27;20255;-43
2022/03/17 03:59:46;;;;;;;36.60;32.70;;;8.90;93.70;;;;;;5139545;27;20198;-43
2022/03/17 04:02:12;;;;;;;34.40;30.70;;;8.90;93.70;;;;;;5141293;27;20170;-44
2022/03/17 04:04:42;;;;;;;35.73;31.97;;;8.90;93.80;;;;;;5138278;27;20459;-43
2022/03/17 04:07:10;;;;;;;37.00;33.10;;;8.90;93.80;;;;;;5139750;27;20190;-44
2022/03/17 04:09:39;;;;;;;35.40;31.80;;;8.90;93.90;;;;;;5138526;27;20448;-43
2022/03/17 04:12:10;;;;;;;37.00;33.03;;;8.90;93.90;;;;;;5140547;27;20413;-44
2022/03/17 04:14:35;;;;;;;35.70;31.97;;;8.80;93.90;;;;;;5130485;27;20415;-44
2022/03/17 04:17:01;;;;;;;35.10;31.47;;;8.80;93.90;;;;;;5119868;28;20662;-43
2022/03/17 04:19:27;;;;;;;36.00;32.30;;;8.90;94.00;;;;;;5126106;27;20660;-44
2022/03/17 04:21:53;;;;;;;35.93;32.17;;;8.80;94.00;;;;;;5139180;27;20172;-44
2022/03/17 04:24:20;;;;;;;37.50;33.57;;;8.80;94.00;;;;;;5139907;27;20175;-44
2022/03/17 04:26:46;;;;;;;36.00;32.30;;;8.80;94.00;;;;;;5139039;27;20810;-44
2022/03/17 04:29:12;;;;;;;36.83;32.90;;;8.80;94.00;;;;;;5139901;27;20410;-44
2022/03/17 04:31:39;;;;;;;34.80;31.17;;;8.80;94.00;;;;;;5138568;27;20463;-44
2022/03/17 04:34:05;;;;;;;34.73;31.23;;;8.80;94.30;;;;;;5140839;27;20419;-43
2022/03/17 04:36:31;;;;;;;37.90;32.27;;;8.80;93.90;;;;;;5138786;27;20528;-43
2022/03/17 04:38:57;;;;;;;37.07;33.27;;;8.80;93.90;;;;;;5139644;27;20409;-44
2022/03/17 04:41:23;;;;;;;37.40;33.50;;;8.80;93.90;;;;;;5138849;27;20433;-41
2022/03/17 04:43:49;;;;;;;37.07;33.27;;;8.80;93.90;;;;;;5140399;27;20414;-43
2022/03/17 04:46:15;;;;;;;37.80;33.90;;;8.80;93.90;;;;;;5138948;27;20226;-44
2022/03/17 04:48:41;;;;;;;37.20;33.40;;;8.80;93.90;;;;;;5139151;27;20409;-44
2022/03/17 04:51:07;;;;;;;36.03;32.23;;;8.90;93.90;;;;;;5138151;27;20180;-44
2022/03/17 04:53:33;;;;;;;38.57;34.53;;;8.80;93.90;;;;;;5139388;27;20405;-44
2022/03/17 04:56:10;;;;;;;37.23;33.33;;;8.90;93.80;;;;;;5138394;27;20481;-45
2022/03/17 04:58:42;;;;;;;35.87;32.17;;;8.90;93.70;;;;;;5139676;27;20763;-44
2022/03/17 05:01:09;;;;;;;34.87;31.17;;;8.90;93.70;;;;;;5135951;27;20486;-44
2022/03/17 05:03:36;;;;;;;36.30;32.43;;;8.90;93.70;;;;;;5140020;27;20462;-46
2022/03/17 05:06:03;;;;;;;35.90;30.87;;;8.90;93.60;;;;;;5134522;27;20469;-47
2022/03/17 05:08:29;;;;;;;35.67;31.97;;;9.00;93.60;;;;;;5119469;28;20532;-46
2022/03/17 05:10:54;;;;;;;36.63;32.80;;;9.00;93.50;;;;;;5123821;27;20508;-46
2022/03/17 05:13:22;;;;;;;37.27;33.30;;;9.00;93.50;;;;;;5140325;27;20427;-46
2022/03/17 05:15:48;;;;;;;38.00;34.07;;;9.00;93.50;;;;;;5139852;27;20214;-46
2022/03/17 05:18:14;;;;;;;36.57;32.60;;;9.00;93.40;;;;;;5118521;28;20422;-47
2022/03/17 05:20:41;;;;;;;37.80;33.90;;;9.00;93.40;;;;;;5121438;28;20413;-47
2022/03/17 05:23:11;;;;;;;38.77;34.80;;;9.00;93.30;;;;;;5119167;28;20442;-46
2022/03/17 05:25:39;;;;;;;38.17;34.20;;;9.10;93.30;;;;;;5120326;28;20464;-46
2022/03/17 05:28:05;;;;;;;39.27;35.00;;;9.10;93.30;;;;;;5120268;27;20421;-46
2022/03/17 05:30:31;;;;;;;39.07;35.03;;;9.10;93.20;;;;;;5121186;28;20401;-46
2022/03/17 05:32:58;;;;;;;40.50;36.50;;;9.00;93.20;;;;;;5119341;28;20436;-46
2022/03/17 05:35:24;;;;;;;37.87;33.83;;;9.00;93.30;;;;;;5121274;28;20426;-46
2022/03/17 05:37:50;;;;;;;39.23;34.93;;;9.00;93.40;;;;;;5120516;28;20471;-46
2022/03/17 05:40:17;;;;;;;40.17;34.50;;;9.00;93.40;;;;;;5119957;28;20433;-46
2022/03/17 05:42:51;;;;;;;41.70;37.20;;;9.00;93.40;;;;;;5119329;28;20874;-46
2022/03/17 05:45:17;;;;;;;39.97;35.67;;;9.00;93.40;;;;;;5120831;28;20493;-46
2022/03/17 05:47:47;;;;;;;41.33;36.80;;;9.00;93.30;;;;;;5119451;28;20430;-46
2022/03/17 05:50:20;;;;;;;42.80;38.30;;;9.00;93.30;;;;;;5120433;28;20425;-46
2022/03/17 05:52:46;;;;;;;42.27;37.97;;;9.00;93.20;;;;;;5101880;28;20426;-46
2022/03/17 05:55:14;;;;;;;43.00;38.40;;;9.00;93.20;;;;;;5120035;28;20462;-46
2022/03/17 05:57:41;;;;;;;42.07;37.53;;;9.00;93.10;;;;;;5122613;27;20502;-46
2022/03/17 06:00:09;;;;;;;42.47;37.97;;;9.00;93.10;;;;;;5140224;27;20417;-45
2022/03/17 06:02:36;;;;;;;44.27;39.37;;;9.00;93.10;;;;;;5136251;27;20428;-46
2022/03/17 06:05:06;;;;;;;45.50;38.53;;;9.00;93.00;;;;;;5126727;27;20456;-46
2022/03/17 06:07:49;;;;;;;44.00;39.43;;;9.10;92.90;;;;;;5131407;27;20410;-46
2022/03/17 06:10:17;;;;;;;42.43;37.93;;;9.10;92.90;;;;;;5126704;27;20418;-45
2022/03/17 06:12:46;;;;;;;44.70;40.00;;;9.10;92.80;;;;;;5128263;27;20424;-46
2022/03/17 06:15:12;;;;;;;46.03;41.23;;;9.10;92.80;;;;;;5117985;28;20408;-46
2022/03/17 06:17:43;;;;;;;44.13;39.43;;;9.20;92.80;;;;;;5117164;28;20406;-45
2022/03/17 06:20:12;;;;;;;43.47;38.90;;;9.10;92.70;;;;;;5099412;28;21012;-46
2022/03/17 06:22:42;;;;;;;44.07;39.20;;;9.10;92.60;;;;;;5113823;28;20406;-45
2022/03/17 06:25:11;;;;;;;43.50;38.23;;;9.10;92.70;;;;;;5098814;28;20454;-45
2022/03/17 06:27:36;;;;;;;44.67;40.00;;;9.20;92.70;;;;;;5114762;28;20771;-47
2022/03/17 06:30:07;;;;;;;43.33;38.60;;;9.20;92.60;;;;;;5097314;28;20531;-45
2022/03/17 06:32:38;;;;;;;44.50;40.00;;;9.20;92.60;;;;;;5117452;28;20719;-45
2022/03/17 06:35:04;;;;;;;40.80;36.30;;;9.20;92.50;;;;;;5131217;28;20529;-45
2022/03/17 06:37:29;;;;;;;40.90;36.67;;;9.20;92.50;;;;;;5137582;28;20837;-45
2022/03/17 06:39:55;;;;;;;45.23;40.23;;;9.30;92.40;;;;;;5123963;28;20538;-45
2022/03/17 06:42:21;;;;;;;42.70;38.20;;;9.30;92.30;;;;;;5099615;28;20276;-48
2022/03/17 06:44:47;;;;;;;44.30;39.60;;;9.30;92.30;;;;;;5116188;28;20212;-45
2022/03/17 06:47:13;;;;;;;43.00;38.43;;;9.40;92.30;;;;;;5117328;28;20406;-46
2022/03/17 06:49:39;;;;;;;42.60;38.10;;;9.40;92.30;;;;;;5127321;28;20181;-46
2022/03/17 06:52:04;;;;;;;43.63;38.83;;;9.40;92.20;;;;;;5138059;28;20258;-46
2022/03/17 06:54:30;;;;;;;41.13;36.83;;;9.50;92.20;;;;;;5137040;28;20580;-45
2022/03/17 06:56:56;;;;;;;44.77;40.03;;;9.50;92.10;;;;;;5138932;28;20171;-46
2022/03/17 06:59:21;;;;;;;40.83;36.67;;;9.60;92.10;;;;;;5120229;28;20183;-45
2022/03/17 07:01:47;;;;;;;42.53;37.97;;;9.60;92.00;;;;;;5119819;28;20194;-46
2022/03/17 07:04:13;;;;;;;43.63;37.83;;;9.70;92.30;;;;;;5118828;28;20470;-46
2022/03/17 07:06:38;;;;;;;44.00;39.10;;;9.70;91.90;;;;;;5118875;28;20208;-46
2022/03/17 07:09:04;;;;;;;41.13;36.73;;;9.80;91.80;;;;;;5116090;28;20180;-46
2022/03/17 07:11:29;;;;;;;42.63;38.10;;;9.80;91.70;;;;;;5117794;28;20201;-46
2022/03/17 07:13:55;;;;;;;41.97;37.37;;;9.90;91.70;;;;;;5116916;28;20458;-46
2022/03/17 07:16:21;;;;;;;41.07;36.67;;;10.00;91.00;;;;;;5118463;28;20288;-47
2022/03/17 07:18:46;;;;;;;39.90;35.70;;;10.00;90.90;;;;;;5116386;28;20273;-47
2022/03/17 07:21:13;;;;;;;42.30;36.93;;;10.10;90.90;;;;;;5118161;28;20189;-47
2022/03/17 07:23:39;;;;;;;38.50;34.60;;;10.20;90.80;;;;;;5117917;28;20196;-47
2022/03/17 07:26:04;;;;;;;40.80;36.63;;;10.30;90.80;;;;;;5128320;27;20459;-47
2022/03/17 07:28:30;;;;;;;40.70;35.50;;;10.30;90.70;;;;;;5139887;27;20235;-47
2022/03/17 07:30:56;;;;;;;40.40;36.23;;;10.40;90.60;;;;;;5136309;27;20274;-46
2022/03/17 07:33:21;;;;;;;36.93;32.93;;;10.50;90.50;;;;;;5118728;28;20223;-47
2022/03/17 07:35:47;;;;;;;41.67;37.17;;;10.50;90.40;;;;;;5120482;28;20208;-47
2022/03/17 07:38:12;;;;;;;39.90;35.93;;;10.60;90.30;;;;;;5119027;28;20193;-47
2022/03/17 07:40:38;;;;;;;39.07;35.17;;;10.70;90.30;;;;;;5121865;28;20244;-46
2022/03/17 07:43:04;;;;;;;39.07;35.07;;;10.70;90.30;;;;;;5120460;28;20191;-47
2022/03/17 07:45:30;;;;;;;39.50;35.57;;;10.80;90.10;;;;;;5120509;28;20219;-47
2022/03/17 07:47:56;;;;;;;39.80;35.80;;;10.80;90.00;;;;;;5102691;28;20188;-46
2022/03/17 07:50:22;;;;;;;38.93;34.93;;;10.90;89.90;;;;;;5118717;28;20702;-47
2022/03/17 07:52:48;;;;;;;37.80;33.40;;;10.90;89.70;;;;;;5135573;27;20412;-47
2022/03/17 07:55:14;;;;;;;37.57;33.70;;;11.00;89.70;;;;;;5139215;27;20484;-47
2022/03/17 07:57:40;;;;;;;36.77;33.07;;;11.00;89.50;;;;;;5128566;27;20428;-46
2022/03/17 08:00:08;;;;;;;37.73;33.97;;;11.10;89.50;;;;;;5102993;28;20495;-47
2022/03/17 08:02:34;;;;;;;37.67;33.67;;;11.20;89.30;;;;;;5113108;27;20531;-47
2022/03/17 08:05:01;;;;;;;36.43;32.73;;;11.20;88.90;;;;;;5139978;27;20843;-47
2022/03/17 08:07:28;;;;;;;35.60;31.90;;;11.30;88.80;;;;;;5115034;28;20176;-47
2022/03/17 08:09:53;;;;;;;34.97;31.27;;;11.30;88.60;;;;;;5118851;28;20472;-47
2022/03/17 08:12:19;;;;;;;37.37;33.57;;;11.40;88.60;;;;;;5120310;28;20815;-46
2022/03/17 08:14:44;;;;;;;37.27;33.47;;;11.40;88.40;;;;;;5120186;28;20195;-47
2022/03/17 08:17:10;;;;;;;38.53;34.63;;;11.50;88.30;;;;;;5105035;27;20181;-47
2022/03/17 08:19:36;;;;;;;35.60;31.83;;;11.50;88.10;;;;;;5138361;27;20182;-47
2022/03/17 08:22:02;;;;;;;34.33;30.93;;;11.60;88.10;;;;;;5139515;27;20181;-47
2022/03/17 08:24:27;;;;;;;35.80;32.20;;;11.60;88.00;;;;;;5121171;27;20219;-47
2022/03/17 08:26:55;;;;;;;35.47;31.77;;;11.60;87.90;;;;;;5119691;28;20184;-47
2022/03/17 08:29:21;;;;;;;33.57;30.10;;;11.60;87.80;;;;;;5120816;28;20205;-47
2022/03/17 08:31:46;;;;;;;32.73;29.43;;;11.70;87.90;;;;;;5119058;28;20442;-47
2022/03/17 08:34:13;;;;;;;34.60;30.27;;;11.70;87.90;;;;;;5119330;28;20437;-47
2022/03/17 08:36:39;;;;;;;33.40;30.10;;;11.70;87.80;;;;;;5118461;28;20417;-47
2022/03/17 08:39:05;;;;;;;31.90;28.80;;;11.80;87.90;;;;;;5119593;28;20933;-47
2022/03/17 08:41:31;;;;;;;30.83;27.83;;;11.80;87.80;;;;;;5119269;28;20505;-47
2022/03/17 08:43:56;;;;;;;30.90;27.80;;;11.90;87.80;;;;;;5129653;27;20198;-47
2022/03/17 08:49:18;;;;;;;31.37;28.10;;;11.90;87.40;;;;;;5140939;27;20189;-47
2022/03/17 08:51:50;;;;;;;30.00;26.97;;;12.00;87.40;;;;;;5140829;27;20408;-47
2022/03/17 08:54:17;;;;;;;30.00;27.00;;;12.00;87.10;;;;;;5140917;27;20463;-47
2022/03/17 08:56:42;;;;;;;20.13;18.17;;;12.10;87.10;;;;;;5138868;27;20424;-48
2022/03/17 08:59:10;;;;;;;10.97;10.00;;;12.20;89.70;;;;;;5137175;27;20425;-48
2022/03/17 09:01:38;;;;;;;11.43;10.07;;;12.70;91.30;;;;;;5136033;27;20187;-48
2022/03/17 09:04:07;;;;;;;12.47;11.37;;;13.00;91.20;;;;;;5137649;27;20417;-48
2022/03/17 09:06:35;;;;;;;14.47;12.97;;;13.40;91.10;;;;;;5137470;27;20467;-48
2022/03/17 09:09:01;;;;;;;14.83;13.30;;;13.80;90.50;;;;;;5137509;27;20454;-48
2022/03/17 09:11:27;;;;;;;13.87;12.50;;;14.10;89.60;;;;;;5139377;27;20429;-48
2022/03/17 09:13:52;;;;;;;15.60;13.10;;;14.40;88.30;;;;;;5137364;27;20518;-48
2022/03/17 09:16:19;;;;;;;15.43;13.93;;;14.70;87.00;;;;;;5139042;27;20182;-48
2022/03/17 09:18:44;;;;;;;15.93;14.40;;;14.90;85.40;;;;;;5138422;27;20190;-47
2022/03/17 09:21:10;;;;;;;20.77;18.70;;;15.10;84.40;;;;;;5139901;27;20827;-47
2022/03/17 09:23:36;;;;;;;24.90;22.60;;;15.10;82.60;;;;;;5139562;27;20536;-47
2022/03/17 09:26:02;;;;;;;27.10;24.40;;;15.00;80.90;;;;;;5141017;27;20472;-47
2022/03/17 09:28:28;;;;;;;26.57;24.07;;;14.90;79.90;;;;;;5140715;27;20227;-47
2022/03/17 09:30:54;;;;;;;27.43;24.83;;;14.80;79.20;;;;;;5138925;27;20445;-47
2022/03/17 09:33:25;;;;;;;27.43;24.80;;;14.60;79.00;;;;;;5138990;27;20405;-47
2022/03/17 09:35:53;;;;;;;26.47;23.90;;;14.50;79.10;;;;;;5137828;27;20433;-47
2022/03/17 09:38:19;;;;;;;28.37;25.60;;;14.40;79.20;;;;;;5139949;27;20413;-47
2022/03/17 09:40:45;;;;;;;26.80;24.20;;;14.30;79.00;;;;;;5129177;27;20738;-47
2022/03/17 09:43:28;;;;;;;27.27;24.50;;;14.30;79.10;;;;;;5130475;27;20494;-47
2022/03/17 09:45:54;;;;;;;28.80;25.80;;;14.30;79.20;;;;;;5128507;27;20485;-47
2022/03/17 09:48:22;;;;;;;27.40;24.67;;;14.20;79.00;;;;;;5131637;27;20500;-47
2022/03/17 09:50:55;;;;;;;27.60;25.00;;;14.20;79.00;;;;;;5128866;27;21032;-47
2022/03/17 09:53:24;;;;;;;28.07;25.30;;;14.20;79.00;;;;;;5132659;27;20416;-47
2022/03/17 09:55:51;;;;;;;28.83;25.87;;;14.30;79.10;;;;;;5103811;28;20480;-48
2022/03/17 09:58:18;;;;;;;26.37;23.77;;;14.30;79.00;;;;;;5107605;28;20552;-47
2022/03/17 10:00:53;;;;;;;27.37;24.60;;;14.30;78.90;;;;;;5098540;28;20443;-47
2022/03/17 10:03:25;;;;;;;25.97;23.60;;;14.30;78.90;;;;;;5098917;28;20724;-48
2022/03/17 10:05:52;;;;;;;27.07;24.37;;;14.30;78.90;;;;;;5102708;28;20470;-47
2022/03/17 10:08:20;;;;;;;27.20;24.50;;;14.30;78.90;;;;;;5110200;28;20418;-48
2022/03/17 10:10:47;;;;;;;28.40;25.57;;;14.30;78.90;;;;;;5104768;28;20960;-48
2022/03/17 10:13:16;;;;;;;27.70;25.00;;;14.40;79.10;;;;;;5098988;28;20411;-47
2022/03/17 10:15:45;;;;;;;27.17;24.67;;;14.40;79.00;;;;;;5096670;28;20427;-47
2022/03/17 10:18:23;;;;;;;27.40;24.80;;;14.50;79.00;;;;;;5111816;28;20422;-47
2022/03/17 10:21:08;;;;;;;26.50;23.90;;;14.50;78.90;;;;;;5116960;28;20445;-47
2022/03/17 10:23:42;;;;;;;26.40;23.97;;;14.60;78.90;;;;;;5104172;28;20752;-47
2022/03/17 10:26:08;;;;;;;26.70;24.17;;;14.70;78.70;;;;;;5116958;28;20475;-47
2022/03/17 10:28:34;;;;;;;27.93;25.13;;;14.80;78.70;;;;;;5096715;28;20474;-47
2022/03/17 10:31:04;;;;;;;27.20;24.30;;;14.80;78.20;;;;;;5096691;28;20931;-47
2022/03/17 10:33:31;;;;;;;26.33;23.53;;;14.90;78.00;;;;;;5105250;28;20604;-47
2022/03/17 10:36:16;;;;;;;22.60;20.53;;;15.00;78.00;;;;;;5116188;28;20421;-47
2022/03/17 10:38:43;;;;;;;24.73;22.23;;;15.10;77.80;;;;;;5111717;28;20499;-48
2022/03/17 10:41:11;;;;;;;25.23;22.73;;;15.20;77.70;;;;;;5117787;28;20414;-47
2022/03/17 10:43:39;;;;;;;23.73;21.40;;;15.30;77.70;;;;;;5105121;28;20452;-47
2022/03/17 10:46:11;;;;;;;24.57;22.23;;;15.40;77.60;;;;;;5109849;28;20906;-47
2022/03/17 10:48:52;;;;;;;24.23;21.87;;;15.50;77.50;;;;;;5097082;28;20442;-47
2022/03/17 10:51:42;;;;;;;25.07;22.63;;;15.60;77.30;;;;;;5107566;28;20422;-48
2022/03/17 10:54:19;;;;;;;25.23;22.80;;;15.70;77.00;;;;;;5109192;28;20529;-48
2022/03/17 10:57:06;;;;;;;23.93;21.70;;;15.80;77.00;;;;;;5117381;28;20463;-48
2022/03/17 10:59:44;;;;;;;25.03;22.47;;;15.80;76.70;;;;;;5120757;28;20409;-48
2022/03/17 11:02:24;;;;;;;24.77;22.37;;;15.80;76.50;;;;;;5121483;28;20728;-48
2022/03/17 11:04:50;;;;;;;25.97;23.37;;;15.80;76.30;;;;;;5121460;28;20420;-48
2022/03/17 11:07:17;;;;;;;27.37;24.67;;;15.80;76.40;;;;;;5120988;28;20426;-48
2022/03/17 11:09:44;;;;;;;20.43;18.60;;;15.80;76.40;;;;;;5103184;28;20707;-40
2022/03/17 11:12:17;;;;;;;20.60;18.60;;;15.80;77.30;;;;;;5119702;28;20441;-40
2022/03/17 11:14:51;;;;;;;22.43;20.33;;;15.90;77.50;;;;;;5121088;28;20452;-40
2022/03/17 11:17:37;;;;;;;24.17;21.77;;;15.90;77.20;;;;;;5119584;28;20431;-41
2022/03/17 11:20:07;;;;;;;24.03;21.60;;;15.90;77.10;;;;;;5104595;28;20906;-40
2022/03/17 11:22:34;;;;;;;26.47;23.73;;;15.80;77.00;;;;;;5120516;28;20450;-39
2022/03/17 11:25:20;;;;;;;26.93;24.27;;;15.80;77.10;;;;;;5118855;27;20477;-39
2022/03/17 11:27:47;;;;;;;27.13;24.23;;;15.70;77.40;;;;;;5120222;28;20418;-41
2022/03/17 11:30:17;;;;;;;27.47;24.53;;;15.60;77.60;;;;;;5116739;27;20493;-39
2022/03/17 11:33:28;;;;;;;26.90;24.03;;;15.60;78.10;;;;;;5107262;27;20416;-41
2022/03/17 11:36:23;;;;;;;28.57;25.47;;;15.50;78.80;;;;;;5114040;27;20448;-39
2022/03/17 11:38:55;;;;;;;31.27;27.17;;;15.40;79.50;;;;;;5124916;27;20713;-43
2022/03/17 11:41:24;;;;;;;25.80;23.20;;;15.30;80.40;;;;;;5120452;28;20409;-39
2022/03/17 11:43:49;;;;;;;28.30;25.37;;;15.20;81.30;;;;;;5119909;28;20414;-42
2022/03/17 11:46:16;;;;;;;26.37;23.77;;;15.20;81.90;;;;;;5125101;27;20467;-39
2022/03/17 11:48:43;;;;;;;27.10;24.30;;;15.10;82.50;;;;;;5122291;27;20268;-42
2022/03/17 11:51:10;;;;;;;27.33;24.67;;;15.10;83.20;;;;;;5141737;27;20512;-41
2022/03/17 11:53:38;;;;;;;30.30;25.73;;;15.00;83.70;;;;;;5139599;27;20420;-40
2022/03/17 11:56:04;;;;;;;29.27;26.10;;;14.90;84.10;;;;;;5131430;27;20571;-40
2022/03/17 11:58:40;;;;;;;27.30;24.53;;;14.90;84.60;;;;;;5119900;28;20487;-39
2022/03/17 12:01:14;;;;;;;27.50;23.70;;;14.80;85.10;;;;;;5116858;27;20465;-40
2022/03/17 12:04:07;;;;;;;28.97;26.07;;;14.70;85.50;;;;;;5138673;27;20429;-40
2022/03/17 12:06:33;;;;;;;27.73;24.83;;;14.70;86.00;;;;;;5133587;27;20493;-42
2022/03/17 12:09:01;;;;;;;28.77;25.67;;;14.60;86.40;;;;;;5138737;27;20413;-41
2022/03/17 12:11:47;;;;;;;27.87;24.97;;;14.60;86.70;;;;;;5137253;27;20433;-41
2022/03/17 12:14:25;;;;;;;28.50;25.70;;;14.50;87.10;;;;;;5138188;27;20432;-40
2022/03/17 12:17:08;;;;;;;30.37;27.20;;;14.50;87.30;;;;;;5120808;27;20425;-41
2022/03/17 12:19:49;;;;;;;35.20;28.20;;;14.50;87.60;;;;;;5137609;27;20420;-39
2022/03/17 12:22:39;;;;;;;30.73;27.53;;;14.50;87.70;;;;;;5139186;27;20420;-42
2022/03/17 12:25:21;;;;;;;31.87;28.77;;;14.50;87.90;;;;;;5116474;28;20462;-40
2022/03/17 12:27:51;;;;;;;30.20;27.10;;;14.50;87.90;;;;;;5115412;28;20411;-41
2022/03/17 12:30:18;;;;;;;38.80;34.63;;;14.40;88.10;;;;;;5114507;28;20486;-40
2022/03/17 12:32:56;;;;;;;34.50;30.60;;;14.40;88.30;;;;;;5116275;28;20820;-40
2022/03/17 12:35:31;;;;;;;35.60;32.00;;;14.40;88.50;;;;;;5117883;28;20437;-40
2022/03/17 12:37:59;;;;;;;36.57;32.70;;;14.50;88.60;;;;;;5115795;28;20725;-40
2022/03/17 12:40:25;;;;;;;38.40;34.30;;;14.50;88.50;;;;;;5119537;28;20422;-41
2022/03/17 12:42:52;;;;;;;36.70;32.80;;;14.60;88.60;;;;;;5098706;28;20441;-40
2022/03/17 12:45:21;;;;;;;40.53;35.90;;;14.60;88.60;;;;;;5117543;28;20473;-41
2022/03/17 12:47:48;;;;;;;37.83;33.70;;;14.60;88.70;;;;;;5116672;28;20422;-42
2022/03/17 12:50:18;;;;;;;40.17;35.33;;;14.60;88.80;;;;;;5128289;27;20448;-41
2022/03/17 12:52:45;;;;;;;36.83;32.97;;;14.60;89.00;;;;;;5137437;27;20706;-40